Time;durP1;ratioP1;P1;durP2;ratioP2;P2;SDS_P1;SDS_P2;PMS_P1;PMS_P2;Temp;Humidity;BMP_temperature;BMP_pressure;BME280_temperature;BME280_humidity;BME280_pressure;Samples;Min_cycle;Max_cycle;Signal;HPM_P1;HPM_P2
2021/06/22 00:02:19;;;;;;;4.32;3.70;;;23.00;72.00;;;;;;3576219;40;20043;-69
2021/06/22 00:04:44;;;;;;;4.85;3.97;;;23.00;72.00;;;;;;3575029;40;20029;-69
2021/06/22 00:07:14;;;;;;;5.63;3.80;;;23.00;72.00;;;;;;3573479;40;20029;-69
2021/06/22 00:09:40;;;;;;;6.07;4.43;;;23.00;72.30;;;;;;3562492;40;20032;-69
2021/06/22 00:12:07;;;;;;;6.32;4.82;;;23.00;72.30;;;;;;3570358;40;20037;-69
2021/06/22 00:14:33;;;;;;;8.60;5.20;;;23.00;72.40;;;;;;3570336;40;20028;-69
2021/06/22 00:16:59;;;;;;;7.88;5.25;;;23.00;72.40;;;;;;3571783;40;20069;-69
2021/06/22 00:19:24;;;;;;;7.35;5.05;;;22.90;72.80;;;;;;3572886;40;20257;-69
2021/06/22 00:21:50;;;;;;;7.90;4.40;;;23.00;72.90;;;;;;3573374;40;20048;-69
2021/06/22 00:24:16;;;;;;;6.97;4.68;;;22.90;73.10;;;;;;3574663;40;20418;-69
2021/06/22 00:26:42;;;;;;;7.50;5.35;;;22.90;73.10;;;;;;3567528;40;20024;-69
2021/06/22 00:29:07;;;;;;;6.60;5.30;;;22.90;73.10;;;;;;3578024;40;20059;-69
2021/06/22 00:31:33;;;;;;;5.28;4.80;;;22.90;73.00;;;;;;3578501;40;20649;-69
2021/06/22 00:33:59;;;;;;;6.28;5.10;;;22.90;73.20;;;;;;3567574;40;20361;-69
2021/06/22 00:36:24;;;;;;;6.25;4.47;;;22.90;73.50;;;;;;3575655;40;20032;-69
2021/06/22 00:38:50;;;;;;;8.45;4.75;;;22.80;73.50;;;;;;3574695;40;20073;-69
2021/06/22 00:41:16;;;;;;;10.50;4.82;;;22.80;73.60;;;;;;3572564;40;20062;-69
2021/06/22 00:43:42;;;;;;;5.82;4.72;;;22.90;73.40;;;;;;3571152;40;20739;-69
2021/06/22 00:46:07;;;;;;;5.82;5.22;;;22.90;73.50;;;;;;3560486;40;20407;-69
2021/06/22 00:48:33;;;;;;;5.72;4.70;;;22.90;73.30;;;;;;3551883;40;20045;-69
2021/06/22 00:51:00;;;;;;;6.13;5.00;;;22.90;73.20;;;;;;3562089;40;20029;-69
2021/06/22 00:53:26;;;;;;;6.80;5.03;;;23.00;73.10;;;;;;3568761;40;20029;-69
2021/06/22 00:55:54;;;;;;;6.38;5.13;;;23.10;72.60;;;;;;3574753;40;20035;-69
2021/06/22 00:58:23;;;;;;;9.18;5.40;;;23.10;72.50;;;;;;3566920;40;20050;-69
2021/06/22 01:00:53;;;;;;;6.60;4.72;;;23.00;72.80;;;;;;3570845;40;20039;-69
2021/06/22 01:03:20;;;;;;;7.28;5.22;;;23.00;72.70;;;;;;3574100;40;20032;-69
2021/06/22 01:05:46;;;;;;;5.75;4.72;;;22.90;72.90;;;;;;3572829;40;20035;-69
2021/06/22 01:08:13;;;;;;;5.07;4.57;;;22.80;73.50;;;;;;3573879;40;20033;-69
2021/06/22 01:10:40;;;;;;;5.47;4.90;;;22.80;73.80;;;;;;3566065;40;20036;-69
2021/06/22 01:13:06;;;;;;;5.65;4.45;;;22.70;73.80;;;;;;3574044;40;20025;-69
2021/06/22 01:15:32;;;;;;;5.13;3.88;;;22.80;73.80;;;;;;3573871;40;20132;-69
2021/06/22 01:18:06;;;;;;;9.10;4.60;;;22.70;73.90;;;;;;3562209;40;20059;-69
2021/06/22 01:20:57;;;;;;;6.95;4.80;;;22.70;74.00;;;;;;3574063;40;20046;-69
2021/06/22 01:23:25;;;;;;;5.88;4.70;;;22.70;74.00;;;;;;3564883;40;20076;-71
2021/06/22 01:25:50;;;;;;;4.82;4.38;;;22.70;73.80;;;;;;3574020;40;20017;-69
2021/06/22 01:28:16;;;;;;;8.48;5.05;;;22.70;73.90;;;;;;3565871;40;20033;-69
2021/06/22 01:30:46;;;;;;;5.47;4.97;;;22.70;74.00;;;;;;3566865;40;20044;-69
2021/06/22 01:33:11;;;;;;;8.80;4.93;;;22.70;74.00;;;;;;3578217;40;20075;-69
2021/06/22 01:35:37;;;;;;;6.90;4.85;;;22.60;74.30;;;;;;3580072;40;20036;-69
2021/06/22 01:38:08;;;;;;;9.55;6.30;;;22.60;74.20;;;;;;3579787;40;20299;-69
2021/06/22 01:40:48;;;;;;;6.40;4.60;;;22.60;74.00;;;;;;3572399;40;20057;-69
2021/06/22 01:43:16;;;;;;;9.73;4.60;;;22.70;73.80;;;;;;3574319;40;20497;-69
2021/06/22 01:45:46;;;;;;;6.85;4.40;;;22.70;74.00;;;;;;3557776;40;20025;-69
2021/06/22 01:48:12;;;;;;;6.88;5.03;;;22.70;74.00;;;;;;3573503;40;20045;-69
2021/06/22 01:50:42;;;;;;;7.57;4.40;;;22.60;73.90;;;;;;3571259;40;20113;-69
2021/06/22 01:53:12;;;;;;;7.63;5.03;;;22.70;73.80;;;;;;3573023;40;20040;-69
2021/06/22 01:55:42;;;;;;;5.90;5.00;;;22.80;73.40;;;;;;3564626;40;20174;-69
2021/06/22 01:58:14;;;;;;;6.72;4.75;;;22.80;73.10;;;;;;3575267;40;20033;-69
2021/06/22 02:01:05;;;;;;;8.05;4.18;;;22.90;72.90;;;;;;3565649;40;20039;-69
2021/06/22 02:03:43;;;;;;;6.53;5.05;;;22.90;72.90;;;;;;3576189;40;20032;-68
2021/06/22 02:06:09;;;;;;;8.98;4.47;;;22.90;72.40;;;;;;3578300;40;20039;-68
2021/06/22 02:08:40;;;;;;;7.40;4.85;;;22.80;72.80;;;;;;3562839;40;20037;-68
2021/06/22 02:11:06;;;;;;;6.80;5.20;;;22.80;73.20;;;;;;3570498;40;20053;-68
2021/06/22 02:13:39;;;;;;;6.65;4.63;;;22.70;73.00;;;;;;3564729;40;20035;-68
2021/06/22 02:16:13;;;;;;;7.47;4.60;;;22.70;73.30;;;;;;3567106;40;20037;-68
2021/06/22 02:18:39;;;;;;;9.00;4.70;;;22.70;73.30;;;;;;3574539;40;20055;-69
2021/06/22 02:21:06;;;;;;;9.07;4.30;;;22.70;72.90;;;;;;3564774;40;20021;-68
2021/06/22 02:23:34;;;;;;;9.73;5.43;;;22.70;72.90;;;;;;3570152;40;20032;-68
2021/06/22 02:26:01;;;;;;;7.47;4.22;;;22.70;72.80;;;;;;3574543;40;20044;-68
2021/06/22 02:28:27;;;;;;;6.78;4.55;;;22.70;72.80;;;;;;3570794;40;20032;-68
2021/06/22 02:30:55;;;;;;;8.90;4.63;;;22.70;72.60;;;;;;3566332;40;20129;-66
2021/06/22 02:33:22;;;;;;;7.53;4.53;;;22.70;72.20;;;;;;3563915;40;20049;-69
2021/06/22 02:35:52;;;;;;;11.70;4.80;;;22.70;72.40;;;;;;3575866;40;20491;-70
2021/06/22 02:38:19;;;;;;;8.27;5.43;;;22.60;72.30;;;;;;3569363;40;20037;-70
2021/06/22 02:40:51;;;;;;;11.43;6.28;;;22.60;71.70;;;;;;3570998;40;20115;-68
2021/06/22 02:43:23;;;;;;;16.98;6.85;;;22.50;71.70;;;;;;3560072;40;20134;-67
2021/06/22 02:45:50;;;;;;;10.90;5.13;;;22.50;72.00;;;;;;3563665;40;20024;-67
2021/06/22 02:48:21;;;;;;;11.32;5.32;;;22.50;72.60;;;;;;3576169;40;20476;-68
2021/06/22 02:50:47;;;;;;;10.60;5.60;;;22.50;72.30;;;;;;3563892;40;20091;-70
2021/06/22 02:53:14;;;;;;;11.13;5.97;;;22.40;72.50;;;;;;3566412;40;20040;-67
2021/06/22 02:55:42;;;;;;;9.27;5.05;;;22.40;72.40;;;;;;3576640;40;20644;-68
2021/06/22 02:58:12;;;;;;;10.63;5.68;;;22.40;72.70;;;;;;3567742;40;20041;-68
2021/06/22 03:00:42;;;;;;;10.65;6.68;;;22.40;72.30;;;;;;3559561;40;20051;-67
2021/06/22 03:03:10;;;;;;;9.98;5.45;;;22.40;71.80;;;;;;3563154;40;20037;-69
2021/06/22 03:05:41;;;;;;;12.27;5.85;;;22.40;72.10;;;;;;3564459;40;20041;-70
2021/06/22 03:08:09;;;;;;;12.98;6.38;;;22.40;71.90;;;;;;3564629;40;20041;-70
2021/06/22 03:10:38;;;;;;;10.23;5.90;;;22.30;72.00;;;;;;3575655;40;20029;-70
2021/06/22 03:13:04;;;;;;;8.30;6.53;;;22.30;71.60;;;;;;3570355;40;20036;-70
2021/06/22 03:15:31;;;;;;;14.02;6.75;;;22.30;71.30;;;;;;3565626;40;20447;-70
2021/06/22 03:17:57;;;;;;;12.90;6.22;;;22.30;71.40;;;;;;3577216;40;20051;-70
2021/06/22 03:20:35;;;;;;;8.95;6.45;;;22.20;71.60;;;;;;3576189;40;20041;-70
2021/06/22 03:23:04;;;;;;;12.00;6.53;;;22.10;71.80;;;;;;3577050;40;20041;-69
2021/06/22 03:25:30;;;;;;;12.35;6.47;;;22.00;71.70;;;;;;3564916;40;20029;-70
2021/06/22 03:28:01;;;;;;;13.35;6.97;;;22.00;71.30;;;;;;3572758;40;20037;-70
2021/06/22 03:30:43;;;;;;;9.90;5.53;;;21.90;72.00;;;;;;3563262;40;20049;-70
2021/06/22 03:33:10;;;;;;;11.75;6.53;;;21.80;72.40;;;;;;3570940;40;20705;-70
2021/06/22 03:35:36;;;;;;;10.10;5.88;;;21.80;72.30;;;;;;3578517;40;20302;-70
2021/06/22 03:38:02;;;;;;;9.63;6.20;;;21.80;72.40;;;;;;3573544;40;20036;-70
2021/06/22 03:40:28;;;;;;;11.65;5.97;;;21.80;71.50;;;;;;3569314;40;20077;-70
2021/06/22 03:42:53;;;;;;;11.20;5.80;;;21.80;71.80;;;;;;3577477;40;20028;-70
2021/06/22 03:45:20;;;;;;;9.52;6.15;;;21.80;72.00;;;;;;3576746;40;20072;-70
2021/06/22 03:47:51;;;;;;;11.90;6.38;;;21.80;72.20;;;;;;3569063;40;20113;-70
2021/06/22 03:50:17;;;;;;;8.20;5.30;;;21.70;71.90;;;;;;3569926;40;20666;-70
2021/06/22 03:52:43;;;;;;;10.88;5.10;;;21.60;71.90;;;;;;3575110;40;20028;-67
2021/06/22 03:55:27;;;;;;;11.15;5.78;;;21.60;72.80;;;;;;3575759;40;20135;-69
2021/06/22 03:58:05;;;;;;;11.80;7.03;;;21.70;72.00;;;;;;3575087;40;20162;-69
2021/06/22 04:00:38;;;;;;;10.48;5.00;;;21.70;71.10;;;;;;3566055;40;20051;-69
2021/06/22 04:03:13;;;;;;;10.45;5.75;;;21.70;72.10;;;;;;3571948;40;20834;-69
2021/06/22 04:05:44;;;;;;;8.02;4.95;;;21.70;71.80;;;;;;3570375;40;20554;-69
2021/06/22 04:08:21;;;;;;;10.68;6.03;;;21.70;71.60;;;;;;3568046;40;20061;-68
2021/06/22 04:10:49;;;;;;;7.30;5.03;;;21.70;70.80;;;;;;3566741;40;20048;-69
2021/06/22 04:13:15;;;;;;;10.55;5.32;;;21.60;71.80;;;;;;3574152;40;20029;-69
2021/06/22 04:15:41;;;;;;;8.05;4.35;;;21.50;71.40;;;;;;3558601;40;20073;-69
2021/06/22 04:18:09;;;;;;;8.05;4.35;;;21.50;72.20;;;;;;3576516;40;20044;-69
2021/06/22 04:20:36;;;;;;;7.03;4.30;;;21.50;71.60;;;;;;3578162;40;20161;-69
2021/06/22 04:23:05;;;;;;;6.53;4.10;;;21.50;71.40;;;;;;3568971;40;20608;-69
2021/06/22 04:25:32;;;;;;;5.10;3.85;;;21.50;71.20;;;;;;3569410;40;20052;-68
2021/06/22 04:28:02;;;;;;;7.90;3.65;;;21.50;71.30;;;;;;3566249;40;20071;-69
2021/06/22 04:30:27;;;;;;;7.63;4.10;;;21.50;71.70;;;;;;3568143;40;20043;-69
2021/06/22 04:32:53;;;;;;;5.30;3.50;;;21.50;71.40;;;;;;3576494;40;20036;-69
2021/06/22 04:35:19;;;;;;;6.38;3.08;;;21.50;71.90;;;;;;3577662;40;20028;-69
2021/06/22 04:37:44;;;;;;;4.75;2.88;;;21.50;71.40;;;;;;3571723;40;20021;-69
2021/06/22 04:40:11;;;;;;;5.78;2.80;;;21.50;71.20;;;;;;3571366;40;20033;-69
2021/06/22 04:42:37;;;;;;;2.80;2.40;;;21.40;71.30;;;;;;3572599;40;20783;-69
2021/06/22 04:45:04;;;;;;;3.70;2.25;;;21.40;71.80;;;;;;3562723;40;20040;-69
2021/06/22 04:47:30;;;;;;;4.95;2.53;;;21.40;71.00;;;;;;3574270;40;20037;-69
2021/06/22 04:49:56;;;;;;;2.90;2.10;;;21.30;71.90;;;;;;3574631;40;20323;-68
2021/06/22 04:52:22;;;;;;;2.80;1.63;;;21.30;71.50;;;;;;3573552;40;20415;-68
2021/06/22 04:54:47;;;;;;;1.73;1.30;;;21.40;71.20;;;;;;3570764;40;20051;-68
2021/06/22 04:57:18;;;;;;;1.95;1.70;;;21.40;71.50;;;;;;3576547;40;20041;-68
2021/06/22 04:59:43;;;;;;;2.00;1.50;;;21.30;71.00;;;;;;3564651;40;20102;-69
2021/06/22 05:02:09;;;;;;;4.70;1.38;;;21.30;71.40;;;;;;3564700;40;20041;-68
2021/06/22 05:04:35;;;;;;;2.15;1.40;;;21.20;72.00;;;;;;3573764;40;20036;-68
2021/06/22 05:07:01;;;;;;;2.00;1.05;;;21.20;71.20;;;;;;3562139;40;20029;-69
2021/06/22 05:09:26;;;;;;;3.33;1.67;;;21.20;72.00;;;;;;3577108;40;20217;-68
2021/06/22 05:11:52;;;;;;;1.20;1.10;;;21.20;71.50;;;;;;3577515;40;20089;-68
2021/06/22 05:14:18;;;;;;;1.30;1.20;;;21.20;72.10;;;;;;3575603;40;20036;-68
2021/06/22 05:16:43;;;;;;;1.42;1.02;;;21.20;71.70;;;;;;3576936;40;20388;-68
2021/06/22 05:19:09;;;;;;;1.75;1.00;;;21.30;70.90;;;;;;3578717;40;20055;-68
2021/06/22 05:21:36;;;;;;;1.88;1.20;;;21.20;71.40;;;;;;3564263;40;20036;-68
2021/06/22 05:24:02;;;;;;;4.43;1.10;;;21.30;71.40;;;;;;3574447;40;20029;-68
2021/06/22 05:26:28;;;;;;;1.83;0.95;;;21.30;71.30;;;;;;3569968;40;20028;-68
2021/06/22 05:28:53;;;;;;;1.13;0.90;;;21.40;70.50;;;;;;3577221;40;20083;-68
2021/06/22 05:31:19;;;;;;;1.88;0.90;;;21.40;69.60;;;;;;3577448;40;20035;-68
2021/06/22 05:33:45;;;;;;;0.88;0.80;;;21.50;69.60;;;;;;3574827;40;20055;-69
2021/06/22 05:36:10;;;;;;;1.38;0.80;;;21.50;70.10;;;;;;3574499;40;20570;-68
2021/06/22 05:38:36;;;;;;;2.17;0.98;;;21.50;69.00;;;;;;3572953;40;20097;-68
2021/06/22 05:41:03;;;;;;;0.63;0.63;;;21.60;69.10;;;;;;3572300;40;20045;-68
2021/06/22 05:43:28;;;;;;;1.30;0.90;;;21.50;70.00;;;;;;3576064;40;20072;-69
2021/06/22 05:45:54;;;;;;;1.02;0.90;;;21.50;69.70;;;;;;3570987;40;20115;-69
2021/06/22 05:48:20;;;;;;;0.60;0.60;;;21.50;69.60;;;;;;3573420;40;20025;-69
2021/06/22 05:50:46;;;;;;;0.70;0.70;;;21.50;69.50;;;;;;3572309;40;20025;-68
2021/06/22 05:53:11;;;;;;;1.88;0.90;;;21.40;69.90;;;;;;3577133;40;20035;-68
2021/06/22 05:55:37;;;;;;;1.15;0.80;;;21.40;70.20;;;;;;3563923;40;20044;-68
2021/06/22 05:58:03;;;;;;;1.90;0.75;;;21.30;70.00;;;;;;3573679;40;20036;-69
2021/06/22 06:00:32;;;;;;;1.27;0.90;;;21.30;69.80;;;;;;3573829;40;20072;-69
2021/06/22 06:02:58;;;;;;;1.50;1.10;;;21.40;69.40;;;;;;3579811;40;20020;-68
2021/06/22 06:05:23;;;;;;;0.73;0.73;;;21.40;69.60;;;;;;3573278;40;20029;-68
2021/06/22 06:07:50;;;;;;;1.58;0.77;;;21.30;70.40;;;;;;3573345;40;20033;-69
2021/06/22 06:10:17;;;;;;;1.13;0.80;;;21.30;70.20;;;;;;3566407;40;20901;-68
2021/06/22 06:12:43;;;;;;;3.17;1.67;;;21.40;69.90;;;;;;3577813;40;20057;-69
2021/06/22 06:15:10;;;;;;;2.65;1.75;;;21.50;68.80;;;;;;3578647;40;20423;-69
2021/06/22 06:17:37;;;;;;;2.05;1.35;;;21.50;68.60;;;;;;3578730;40;20073;-68
2021/06/22 06:20:08;;;;;;;2.88;1.70;;;21.40;69.10;;;;;;3568541;40;20142;-68
2021/06/22 06:22:35;;;;;;;8.10;1.50;;;21.40;68.30;;;;;;3576737;40;20039;-68
2021/06/22 06:25:03;;;;;;;4.53;1.58;;;21.40;69.30;;;;;;3576002;40;20048;-68
2021/06/22 06:27:39;;;;;;;3.42;1.70;;;21.30;69.30;;;;;;3575085;40;20039;-68
2021/06/22 06:30:07;;;;;;;;;;;21.40;69.20;;;;;;3573156;40;20025;-68
2021/06/22 06:32:33;;;;;;;3.35;1.98;;;21.50;68.30;;;;;;3567919;40;19977;-68
2021/06/22 06:34:59;;;;;;;3.05;2.10;;;21.40;69.10;;;;;;3566836;40;20314;-67
2021/06/22 06:37:25;;;;;;;2.47;2.20;;;21.40;68.90;;;;;;3574160;40;20032;-68
2021/06/22 06:39:50;;;;;;;3.75;2.50;;;21.30;69.00;;;;;;3575948;40;20032;-68
2021/06/22 06:42:16;;;;;;;4.10;2.78;;;21.30;69.90;;;;;;3576572;40;20146;-68
2021/06/22 06:44:42;;;;;;;4.38;3.58;;;21.40;68.50;;;;;;3577146;40;20876;-68
2021/06/22 06:47:08;;;;;;;5.32;3.70;;;21.30;69.00;;;;;;3574916;40;20108;-68
2021/06/22 06:49:35;;;;;;;6.10;3.10;;;21.20;69.40;;;;;;3578096;40;20635;-67
2021/06/22 06:52:03;;;;;;;5.40;2.85;;;21.20;69.40;;;;;;3568537;40;20037;-67
2021/06/22 06:54:29;;;;;;;3.70;2.83;;;21.20;69.30;;;;;;3572168;40;20398;-67
2021/06/22 06:56:54;;;;;;;4.20;2.97;;;21.10;69.40;;;;;;3565100;40;20036;-69
2021/06/22 06:59:20;;;;;;;5.10;3.10;;;21.10;69.40;;;;;;3575115;40;20036;-69
2021/06/22 07:01:46;;;;;;;7.05;3.60;;;21.20;68.90;;;;;;3575752;40;20321;-69
2021/06/22 07:04:11;;;;;;;8.63;4.20;;;21.20;68.80;;;;;;3574251;40;20032;-69
2021/06/22 07:06:38;;;;;;;5.43;3.90;;;21.10;69.00;;;;;;3570812;40;20033;-72
2021/06/22 07:09:04;;;;;;;6.10;3.60;;;21.10;68.80;;;;;;3577608;40;20736;-69
2021/06/22 07:11:30;;;;;;;6.10;3.25;;;21.10;68.80;;;;;;3576741;40;20040;-69
2021/06/22 07:13:56;;;;;;;6.07;3.50;;;21.10;69.10;;;;;;3577914;40;20045;-70
2021/06/22 07:16:22;;;;;;;5.53;3.08;;;21.20;68.70;;;;;;3574702;40;20740;-77
2021/06/22 07:18:48;;;;;;;7.57;3.70;;;21.20;68.50;;;;;;3574582;40;20033;-70
2021/06/22 07:21:16;;;;;;;7.72;3.50;;;21.20;68.60;;;;;;3567308;40;20044;-70
2021/06/22 07:23:41;;;;;;;5.60;3.05;;;21.20;68.40;;;;;;3566867;40;20103;-71
2021/06/22 07:26:07;;;;;;;4.40;2.85;;;21.10;68.40;;;;;;3578919;40;20053;-72
2021/06/22 07:28:34;;;;;;;5.82;3.00;;;21.00;68.90;;;;;;3571156;40;20039;-72
2021/06/22 07:30:59;;;;;;;5.90;3.25;;;21.10;68.70;;;;;;3573794;40;20619;-72
2021/06/22 07:33:25;;;;;;;5.63;2.85;;;21.00;68.50;;;;;;3574849;40;20076;-72
2021/06/22 07:35:51;;;;;;;5.63;3.40;;;21.00;69.20;;;;;;3576375;40;20031;-72
2021/06/22 07:38:17;;;;;;;6.72;2.78;;;21.00;68.40;;;;;;3574198;40;20024;-73
2021/06/22 07:40:42;;;;;;;4.90;3.05;;;21.10;67.40;;;;;;3570230;40;20396;-73
2021/06/22 07:43:08;;;;;;;3.63;2.65;;;20.90;68.50;;;;;;3570677;40;20033;-72
2021/06/22 07:45:34;;;;;;;6.45;2.72;;;20.90;68.10;;;;;;3572238;40;20025;-73
2021/06/22 07:47:59;;;;;;;5.35;2.78;;;20.90;67.90;;;;;;3573449;40;20044;-71
2021/06/22 07:50:25;;;;;;;5.28;2.90;;;20.80;68.40;;;;;;3575457;40;20644;-71
2021/06/22 07:52:52;;;;;;;4.90;2.47;;;20.70;68.80;;;;;;3573724;40;20683;-71
2021/06/22 07:55:18;;;;;;;6.32;2.65;;;20.70;69.20;;;;;;3578047;40;20065;-71
2021/06/22 07:57:44;;;;;;;4.63;2.47;;;20.70;69.00;;;;;;3578667;40;20037;-71
2021/06/22 08:00:18;;;;;;;5.68;3.58;;;20.80;68.70;;;;;;3571163;40;20028;-71
2021/06/22 08:02:44;;;;;;;6.43;3.65;;;20.80;69.00;;;;;;3572950;40;20044;-73
2021/06/22 08:05:10;;;;;;;5.75;3.38;;;20.70;68.60;;;;;;3566484;40;20033;-74
2021/06/22 08:07:36;;;;;;;4.95;2.85;;;20.70;68.50;;;;;;3576346;40;20044;-73
2021/06/22 08:10:02;;;;;;;10.65;2.47;;;20.70;68.60;;;;;;3560012;40;20409;-73
2021/06/22 08:12:28;;;;;;;5.32;3.00;;;20.60;69.10;;;;;;3570180;40;20039;-74
2021/06/22 08:14:53;;;;;;;7.72;3.42;;;20.60;69.00;;;;;;3571323;40;20626;-73
2021/06/22 08:17:19;;;;;;;4.93;2.72;;;20.50;69.00;;;;;;3577713;40;20114;-72
2021/06/22 08:19:45;;;;;;;5.15;2.90;;;20.50;69.70;;;;;;3576559;40;20048;-72
2021/06/22 08:22:10;;;;;;;4.85;2.60;;;20.50;70.20;;;;;;3575930;40;20102;-74
2021/06/22 08:24:36;;;;;;;5.70;3.20;;;20.40;70.00;;;;;;3575273;40;20028;-73
2021/06/22 08:27:02;;;;;;;4.20;3.05;;;20.40;69.80;;;;;;3576925;40;20524;-74
2021/06/22 08:29:28;;;;;;;4.25;2.97;;;20.50;70.30;;;;;;3578123;40;20028;-74
2021/06/22 08:31:53;;;;;;;7.10;3.65;;;20.60;70.30;;;;;;3578946;40;20658;-74
2021/06/22 08:34:19;;;;;;;5.57;3.50;;;20.60;69.20;;;;;;3572873;40;20754;-75
2021/06/22 08:36:45;;;;;;;8.23;3.78;;;20.70;68.50;;;;;;3567837;40;20033;-75
2021/06/22 08:39:10;;;;;;;6.25;3.90;;;20.80;68.10;;;;;;3575894;40;20041;-75
2021/06/22 08:41:38;;;;;;;6.65;3.70;;;20.80;68.00;;;;;;3573562;40;20044;-75
2021/06/22 08:44:05;;;;;;;5.00;3.47;;;20.70;68.10;;;;;;3577870;40;20032;-75
2021/06/22 08:46:31;;;;;;;6.45;3.67;;;20.70;68.30;;;;;;3579226;40;20131;-74
2021/06/22 08:48:59;;;;;;;6.25;3.83;;;20.70;68.30;;;;;;3569253;40;20619;-75
2021/06/22 08:51:25;;;;;;;5.55;3.83;;;20.60;68.20;;;;;;3574768;40;20032;-75
2021/06/22 08:53:51;;;;;;;7.28;3.53;;;20.60;68.60;;;;;;3573596;40;20118;-74
2021/06/22 08:56:17;;;;;;;5.03;3.85;;;20.60;68.60;;;;;;3573918;40;20017;-75
2021/06/22 08:58:43;;;;;;;8.00;3.83;;;20.60;68.50;;;;;;3573371;40;20048;-74
2021/06/22 09:01:08;;;;;;;6.68;4.00;;;20.60;68.60;;;;;;3577382;40;20032;-75
2021/06/22 09:03:34;;;;;;;8.00;3.72;;;20.60;68.80;;;;;;3578667;40;20029;-74
2021/06/22 09:06:00;;;;;;;4.30;3.20;;;20.60;68.60;;;;;;3578977;40;20349;-74
2021/06/22 09:08:30;;;;;;;5.80;3.38;;;20.60;68.50;;;;;;3569456;40;20507;-75
2021/06/22 09:11:10;;;;;;;6.38;3.75;;;20.60;68.70;;;;;;3574663;40;20041;-75
2021/06/22 09:13:37;;;;;;;5.18;3.20;;;20.70;68.80;;;;;;3575287;40;20036;-74
2021/06/22 09:16:06;;;;;;;6.25;3.30;;;20.60;69.80;;;;;;3578285;40;20032;-75
2021/06/22 09:18:34;;;;;;;4.05;3.17;;;20.70;69.60;;;;;;3577551;40;20711;-75
2021/06/22 09:21:02;;;;;;;5.32;3.28;;;20.70;69.60;;;;;;3572542;40;20040;-74
2021/06/22 09:23:33;;;;;;;6.15;3.92;;;20.70;69.70;;;;;;3569960;40;20036;-75
2021/06/22 09:26:00;;;;;;;4.20;2.63;;;20.70;69.40;;;;;;3575319;40;20059;-75
2021/06/22 09:28:29;;;;;;;4.80;3.30;;;20.70;69.70;;;;;;3576084;39;20045;-75
2021/06/22 09:31:02;;;;;;;3.90;3.05;;;20.70;69.60;;;;;;3575756;40;20036;-74
2021/06/22 09:33:35;;;;;;;3.38;3.05;;;20.70;69.70;;;;;;3573511;40;20040;-74
2021/06/22 09:36:20;;;;;;;3.95;2.83;;;20.60;69.50;;;;;;3568531;40;20310;-74
2021/06/22 09:39:07;;;;;;;3.10;2.60;;;20.60;69.80;;;;;;3580416;40;20125;-74
2021/06/22 09:41:37;;;;;;;4.63;2.53;;;20.60;69.80;;;;;;3570833;40;20110;-74
2021/06/22 09:44:21;;;;;;;5.07;2.90;;;20.60;69.40;;;;;;3577652;40;20072;-74
2021/06/22 09:46:51;;;;;;;5.80;2.55;;;20.60;69.30;;;;;;3577744;40;20039;-74
2021/06/22 09:49:20;;;;;;;3.83;2.50;;;20.60;69.50;;;;;;3578317;40;20039;-75
2021/06/22 09:51:53;;;;;;;2.53;2.05;;;20.60;69.50;;;;;;3578303;40;20460;-74
2021/06/22 09:54:20;;;;;;;6.80;2.67;;;20.60;69.80;;;;;;3570797;40;20025;-74
2021/06/22 09:57:11;;;;;;;3.08;2.30;;;20.70;69.10;;;;;;3578744;40;20160;-74
2021/06/22 09:59:53;;;;;;;4.18;2.70;;;20.80;68.60;;;;;;3577070;40;20033;-75
2021/06/22 10:02:21;;;;;;;4.85;2.45;;;20.80;68.30;;;;;;3576115;40;20040;-74
2021/06/22 10:04:49;;;;;;;2.70;1.98;;;20.80;68.90;;;;;;3573783;40;20077;-75
2021/06/22 10:07:17;;;;;;;2.53;2.20;;;20.80;69.40;;;;;;3577858;40;20091;-74
2021/06/22 10:09:43;;;;;;;2.28;2.08;;;20.90;69.30;;;;;;3579475;40;20474;-74
2021/06/22 10:12:15;;;;;;;3.53;2.08;;;20.90;69.00;;;;;;3574891;40;20033;-74
2021/06/22 10:14:48;;;;;;;3.50;2.13;;;20.90;68.80;;;;;;3573812;40;20036;-74
2021/06/22 10:17:18;;;;;;;3.08;2.33;;;20.90;68.20;;;;;;3566707;40;20107;-74
2021/06/22 10:19:46;;;;;;;2.47;2.28;;;21.00;68.20;;;;;;3570258;40;20059;-74
2021/06/22 10:22:14;;;;;;;3.50;2.33;;;21.00;69.00;;;;;;3575885;40;20898;-74
2021/06/22 10:24:43;;;;;;;3.30;2.20;;;21.10;68.90;;;;;;3574514;40;20258;-74
2021/06/22 10:27:11;;;;;;;3.03;2.03;;;21.20;68.60;;;;;;3572328;40;20314;-74
2021/06/22 10:29:36;;;;;;;2.97;2.05;;;21.30;68.70;;;;;;3563853;40;20044;-74
2021/06/22 10:32:04;;;;;;;2.75;2.30;;;21.40;68.60;;;;;;3574352;40;20681;-75
2021/06/22 10:34:31;;;;;;;2.90;2.08;;;21.40;68.50;;;;;;3577866;40;20029;-73
2021/06/22 10:37:03;;;;;;;3.85;2.10;;;21.50;68.20;;;;;;3576152;40;20084;-74
2021/06/22 10:39:51;;;;;;;3.30;1.80;;;21.60;68.00;;;;;;3577950;40;20029;-73
2021/06/22 10:42:17;;;;;;;2.47;2.05;;;21.80;67.40;;;;;;3579897;40;20033;-73
2021/06/22 10:45:03;;;;;;;2.03;1.83;;;21.90;66.60;;;;;;3566898;40;20137;-73
2021/06/22 10:47:30;;;;;;;3.15;1.98;;;21.90;66.00;;;;;;3578059;40;20048;-73
2021/06/22 10:50:00;;;;;;;4.22;2.10;;;22.00;65.90;;;;;;3577666;40;20028;-73
2021/06/22 10:52:41;;;;;;;6.43;1.90;;;22.00;65.40;;;;;;3566856;40;20039;-74
2021/06/22 10:55:23;;;;;;;3.80;2.28;;;21.90;65.00;;;;;;3575232;40;20048;-73
2021/06/22 10:58:04;;;;;;;2.97;2.13;;;21.90;64.70;;;;;;3576510;40;20039;-75
2021/06/22 11:00:37;;;;;;;4.40;2.10;;;21.80;65.40;;;;;;3573773;40;20033;-73
2021/06/22 11:03:22;;;;;;;4.97;2.10;;;21.80;65.50;;;;;;3575810;40;20048;-74
2021/06/22 11:06:00;;;;;;;2.90;1.92;;;21.90;64.80;;;;;;3569398;40;20416;-75
2021/06/22 11:08:29;;;;;;;4.65;2.10;;;22.00;64.30;;;;;;3576028;40;20048;-76
2021/06/22 11:10:54;;;;;;;3.28;1.80;;;22.30;62.20;;;;;;3574824;40;20040;-76
2021/06/22 11:13:47;;;;;;;2.88;2.03;;;22.60;62.40;;;;;;3573710;40;20048;-74
2021/06/22 11:16:19;;;;;;;5.07;2.20;;;23.00;61.70;;;;;;3575018;40;20149;-74
2021/06/22 11:18:51;;;;;;;5.28;2.10;;;23.40;60.20;;;;;;3575663;40;20036;-73
2021/06/22 11:21:18;;;;;;;2.45;1.80;;;23.60;59.00;;;;;;3576246;40;20675;-74
2021/06/22 11:24:15;;;;;;;4.18;2.05;;;23.70;58.70;;;;;;3576520;40;20052;-74
2021/06/22 11:26:41;;;;;;;4.82;1.73;;;23.70;58.30;;;;;;3574488;40;20037;-74
2021/06/22 11:29:12;;;;;;;3.05;2.00;;;23.60;58.60;;;;;;3578462;40;20071;-74
2021/06/22 11:31:51;;;;;;;3.42;1.65;;;23.70;58.80;;;;;;3569276;40;20045;-74
2021/06/22 11:34:25;;;;;;;3.50;2.05;;;23.70;58.60;;;;;;3572066;40;20051;-73
2021/06/22 11:36:53;;;;;;;3.42;1.33;;;23.70;57.90;;;;;;3572791;40;20410;-73
2021/06/22 11:39:27;;;;;;;2.35;1.80;;;23.70;58.50;;;;;;3576405;40;20044;-74
2021/06/22 11:42:08;;;;;;;4.65;1.67;;;23.80;58.10;;;;;;3565762;40;20078;-73
2021/06/22 11:44:44;;;;;;;5.03;1.73;;;23.90;58.30;;;;;;3577373;40;20072;-73
2021/06/22 11:47:25;;;;;;;3.33;2.42;;;24.10;58.70;;;;;;3577002;40;20118;-73
2021/06/22 11:49:57;;;;;;;4.13;1.73;;;24.10;57.70;;;;;;3579112;40;20796;-74
2021/06/22 11:52:38;;;;;;;3.72;2.00;;;24.10;57.90;;;;;;3576715;40;20087;-75
2021/06/22 11:55:16;;;;;;;4.00;2.22;;;24.10;56.60;;;;;;3580174;40;20708;-74
2021/06/22 11:57:49;;;;;;;4.00;2.15;;;24.00;57.20;;;;;;3576367;40;20053;-73
2021/06/22 12:00:16;;;;;;;3.28;1.90;;;24.00;57.90;;;;;;3574534;40;20481;-73
2021/06/22 12:02:53;;;;;;;4.90;2.10;;;24.00;57.50;;;;;;3579030;40;20504;-74
2021/06/22 12:05:21;;;;;;;6.15;2.22;;;23.90;57.00;;;;;;3571546;40;20025;-74
2021/06/22 12:07:55;;;;;;;2.17;1.70;;;24.00;56.90;;;;;;3569419;40;20505;-73
2021/06/22 12:10:44;;;;;;;4.85;1.85;;;24.00;57.20;;;;;;3568282;40;20036;-74
2021/06/22 12:13:11;;;;;;;2.85;1.90;;;24.10;57.20;;;;;;3575672;40;20044;-73
2021/06/22 12:15:39;;;;;;;4.03;1.55;;;24.10;56.70;;;;;;3576075;40;20193;-73
2021/06/22 12:18:05;;;;;;;3.28;1.83;;;24.10;56.70;;;;;;3575223;40;20376;-73
2021/06/22 12:20:33;;;;;;;2.70;1.60;;;24.20;57.00;;;;;;3570799;40;20049;-72
2021/06/22 12:23:05;;;;;;;3.28;1.65;;;24.20;57.20;;;;;;3571849;40;20033;-72
2021/06/22 12:25:42;;;;;;;4.70;1.80;;;24.30;57.80;;;;;;3574509;40;20043;-72
2021/06/22 12:28:09;;;;;;;19.40;3.05;;;24.30;56.50;;;;;;3575890;40;20040;-73
2021/06/22 12:30:41;;;;;;;3.80;1.80;;;24.30;56.30;;;;;;3572458;40;20072;-73
2021/06/22 12:33:16;;;;;;;2.75;2.10;;;24.20;56.30;;;;;;3574705;40;20040;-73
2021/06/22 12:35:45;;;;;;;4.40;2.17;;;24.30;56.00;;;;;;3576636;40;20473;-73
2021/06/22 12:38:13;;;;;;;8.35;2.90;;;24.40;55.50;;;;;;3577592;40;20028;-73
2021/06/22 12:40:41;;;;;;;7.40;2.70;;;24.50;55.50;;;;;;3578374;40;20065;-73
2021/06/22 12:43:07;;;;;;;8.27;3.42;;;24.50;55.50;;;;;;3575235;40;20377;-72
2021/06/22 12:45:33;;;;;;;5.32;3.35;;;24.40;55.60;;;;;;3577408;40;20040;-72
2021/06/22 12:47:59;;;;;;;7.57;2.83;;;24.40;56.00;;;;;;3567477;40;20040;-72
2021/06/22 12:50:33;;;;;;;3.20;2.17;;;24.50;55.20;;;;;;3570546;40;20140;-72
2021/06/22 12:53:00;;;;;;;3.20;2.10;;;24.50;55.10;;;;;;3565176;40;20411;-73
2021/06/22 12:55:39;;;;;;;2.72;1.90;;;24.40;54.80;;;;;;3570197;40;20391;-72